Time;durP1;ratioP1;P1;durP2;ratioP2;P2;SDS_P1;SDS_P2;PMS_P1;PMS_P2;Temp;Humidity;BMP_temperature;BMP_pressure;BME280_temperature;BME280_humidity;BME280_pressure;Samples;Min_cycle;Max_cycle;Signal;HPM_P1;HPM_P2
2023/07/19 00:00:46;;;;;;;16.30;10.40;;;;;;;21.12;100.00;100590.75;106643;1286;58378;-81
2023/07/19 00:03:12;;;;;;;16.60;12.10;;;;;;;21.16;100.00;100592.69;106611;1287;60230;-81
2023/07/19 00:05:37;;;;;;;17.90;11.30;;;;;;;21.19;100.00;100594.84;106523;1286;58306;-80
2023/07/19 00:08:04;;;;;;;18.80;11.20;;;;;;;21.20;100.00;100603.51;106644;1288;58492;-81
2023/07/19 00:10:30;;;;;;;16.70;10.40;;;;;;;21.21;100.00;100604.34;106603;1286;58326;-80
2023/07/19 00:12:55;;;;;;;16.60;10.30;;;;;;;21.24;100.00;100607.52;106635;1286;58338;-81
2023/07/19 00:15:21;;;;;;;22.40;11.10;;;;;;;21.26;100.00;100608.46;106683;1286;58309;-81
2023/07/19 00:17:46;;;;;;;19.70;10.50;;;;;;;21.24;100.00;100603.26;106549;1286;73284;-81
2023/07/19 00:20:12;;;;;;;19.70;10.60;;;;;;;21.24;100.00;100605.31;106637;1287;58587;-81
2023/07/19 00:22:38;;;;;;;19.70;10.90;;;;;;;21.26;100.00;100605.41;106638;1286;58267;-81
2023/07/19 00:25:05;;;;;;;18.70;11.40;;;;;;;21.27;100.00;100605.34;106662;1286;58240;-80
2023/07/19 00:27:30;;;;;;;15.90;11.10;;;;;;;21.26;100.00;100609.30;106580;1286;58298;-82
2023/07/19 00:29:56;;;;;;;17.10;10.50;;;;;;;21.30;100.00;100606.90;106654;1286;58492;-81
2023/07/19 00:32:21;;;;;;;14.80;10.70;;;;;;;21.35;100.00;100600.81;106671;1286;58193;-81
2023/07/19 00:34:47;;;;;;;16.90;10.90;;;;;;;21.39;100.00;100600.83;106652;1286;60962;-81
2023/07/19 00:37:12;;;;;;;17.60;10.20;;;;;;;21.40;100.00;100602.41;106698;1286;58419;-81
2023/07/19 00:39:38;;;;;;;16.00;9.90;;;;;;;21.41;100.00;100603.09;106663;1286;58335;-81
2023/07/19 00:42:04;;;;;;;15.70;10.00;;;;;;;21.43;100.00;100604.14;106682;1286;58599;-81
2023/07/19 00:44:29;;;;;;;22.30;9.60;;;;;;;21.49;100.00;100604.13;106595;1286;59135;-82
2023/07/19 00:46:57;;;;;;;17.00;9.90;;;;;;;21.51;100.00;100609.44;106703;1286;58249;-82
2023/07/19 00:49:23;;;;;;;22.20;10.30;;;;;;;21.52;100.00;100607.69;106503;1287;74315;-81
2023/07/19 00:51:49;;;;;;;14.00;8.90;;;;;;;21.49;100.00;100607.73;106510;1286;58295;-81
2023/07/19 00:54:15;;;;;;;17.10;9.60;;;;;;;21.46;100.00;100607.90;106598;1286;58234;-81
2023/07/19 00:56:43;;;;;;;15.00;8.30;;;;;;;21.45;100.00;100604.20;106655;1286;58377;-82
2023/07/19 00:59:14;;;;;;;18.20;8.30;;;;;;;21.43;100.00;100600.13;106661;1288;58233;-81
2023/07/19 01:01:43;;;;;;;12.70;7.70;;;;;;;21.41;100.00;100597.86;106654;1286;71074;-80
2023/07/19 01:04:09;;;;;;;13.40;7.10;;;;;;;21.38;100.00;100592.06;106656;1286;72326;-81
2023/07/19 01:06:34;;;;;;;21.50;7.00;;;;;;;21.32;100.00;100595.83;106662;1286;58279;-81
2023/07/19 01:09:00;;;;;;;11.40;6.60;;;;;;;21.27;100.00;100592.27;106507;1286;58609;-81
2023/07/19 01:11:25;;;;;;;13.00;6.00;;;;;;;21.20;100.00;100594.08;106662;1286;58248;-81
2023/07/19 01:13:52;;;;;;;18.60;6.90;;;;;;;21.15;100.00;100595.02;106702;1286;58334;-81
2023/07/19 01:16:18;;;;;;;12.30;6.40;;;;;;;21.10;100.00;100604.20;106613;1287;61736;-81
2023/07/19 01:18:44;;;;;;;12.40;6.20;;;;;;;21.01;100.00;100609.09;106618;1286;58333;-80
2023/07/19 01:21:10;;;;;;;12.20;6.10;;;;;;;20.93;100.00;100605.55;106413;1288;58221;-81
2023/07/19 01:23:35;;;;;;;11.60;6.20;;;;;;;20.86;100.00;100601.99;106671;1286;58410;-80
2023/07/19 01:26:01;;;;;;;16.00;6.10;;;;;;;20.80;100.00;100596.10;106606;1286;58323;-79
2023/07/19 01:28:27;;;;;;;13.70;5.80;;;;;;;20.75;100.00;100594.31;106778;1286;58225;-77
2023/07/19 01:30:52;;;;;;;12.80;6.00;;;;;;;20.67;100.00;100594.09;106420;1286;58336;-79
2023/07/19 01:33:18;;;;;;;12.10;5.90;;;;;;;20.59;100.00;100595.47;106701;1286;58404;-82
2023/07/19 01:35:44;;;;;;;10.00;6.10;;;;;;;20.51;100.00;100596.66;106664;1287;58323;-80
2023/07/19 01:38:10;;;;;;;12.10;5.80;;;;;;;20.41;100.00;100587.11;106668;1286;58276;-80
2023/07/19 01:40:36;;;;;;;8.50;5.40;;;;;;;20.33;100.00;100589.13;106665;1286;58315;-81
2023/07/19 01:43:01;;;;;;;14.70;6.10;;;;;;;20.26;100.00;100589.02;106500;1286;58228;-80
2023/07/19 01:45:27;;;;;;;12.00;5.80;;;;;;;20.19;100.00;100588.06;106673;1287;58360;-81
2023/07/19 01:47:53;;;;;;;17.40;6.20;;;;;;;20.15;100.00;100588.48;106326;1286;62840;-81
2023/07/19 01:50:18;;;;;;;9.90;5.50;;;;;;;20.10;100.00;100585.91;106633;1287;58497;-81
2023/07/19 01:52:44;;;;;;;15.10;5.60;;;;;;;20.04;100.00;100585.09;106665;1287;58240;-81
2023/07/19 01:55:10;;;;;;;12.90;5.70;;;;;;;20.00;100.00;100585.48;106657;1286;58231;-81
2023/07/19 01:57:36;;;;;;;13.60;6.00;;;;;;;19.94;100.00;100585.83;106596;1288;58662;-80
2023/07/19 02:00:03;;;;;;;13.50;5.50;;;;;;;19.89;100.00;100590.23;106528;1287;58550;-80
2023/07/19 02:02:28;;;;;;;8.60;5.50;;;;;;;19.83;100.00;100596.62;106682;1287;74026;-81
2023/07/19 02:04:54;;;;;;;10.50;6.50;;;;;;;19.75;100.00;100602.84;106619;1287;58350;-80
2023/07/19 02:07:19;;;;;;;20.10;5.80;;;;;;;19.69;100.00;100606.04;106628;1287;58253;-80
2023/07/19 02:09:45;;;;;;;10.30;6.10;;;;;;;19.60;100.00;100609.58;106665;1286;58655;-80
2023/07/19 02:12:10;;;;;;;11.50;5.50;;;;;;;19.51;100.00;100606.98;106569;1286;58314;-80
2023/07/19 02:14:37;;;;;;;9.40;5.50;;;;;;;19.46;100.00;100604.44;106632;1286;58327;-80
2023/07/19 02:17:02;;;;;;;10.80;5.60;;;;;;;19.47;100.00;100605.63;106642;1286;58329;-80
2023/07/19 02:19:28;;;;;;;13.80;5.80;;;;;;;19.47;100.00;100611.42;106643;1287;58437;-80
2023/07/19 02:21:53;;;;;;;12.30;6.10;;;;;;;19.40;100.00;100621.80;106663;1287;58284;-80
2023/07/19 02:24:19;;;;;;;9.80;5.80;;;;;;;19.36;100.00;100627.28;106656;1286;58395;-80
2023/07/19 02:28:17;;;;;;;10.10;6.10;;;;;;;19.37;100.00;100625.48;103201;1289;600464;-80
2023/07/19 02:30:43;;;;;;;16.60;7.10;;;;;;;19.38;100.00;100629.25;103075;1293;60476;-80
2023/07/19 02:33:13;;;;;;;18.80;7.10;;;;;;;19.39;100.00;100631.63;103356;1289;60395;-80
2023/07/19 02:35:39;;;;;;;17.20;7.80;;;;;;;19.42;100.00;100629.84;103279;1292;73597;-81
2023/07/19 02:38:05;;;;;;;16.00;8.10;;;;;;;19.46;100.00;100629.48;103247;1290;60466;-81
2023/07/19 02:40:30;;;;;;;15.10;8.60;;;;;;;19.52;100.00;100633.98;103103;1297;60323;-81
2023/07/19 02:42:56;;;;;;;17.30;8.80;;;;;;;19.60;100.00;100632.31;103166;1292;427750;-81
2023/07/19 02:45:24;;;;;;;20.50;8.90;;;;;;;19.67;100.00;100634.63;103483;1286;60433;-80
2023/07/19 02:47:50;;;;;;;16.30;8.10;;;;;;;19.76;100.00;100638.15;103561;1292;60392;-80
2023/07/19 02:50:19;;;;;;;16.20;8.40;;;;;;;19.88;100.00;100637.13;103494;1292;60389;-81
2023/07/19 02:52:45;;;;;;;15.70;7.80;;;;;;;20.00;100.00;100629.02;103666;1289;60274;-81
2023/07/19 02:55:10;;;;;;;14.20;7.70;;;;;;;20.15;100.00;100627.02;103446;1292;61008;-82
2023/07/19 02:57:36;;;;;;;14.30;7.70;;;;;;;20.28;100.00;100629.01;103618;1292;60389;-81
2023/07/19 03:00:02;;;;;;;13.60;7.40;;;;;;;20.38;100.00;100632.33;103179;1295;60675;-80
2023/07/19 03:02:28;;;;;;;12.50;8.10;;;;;;;20.52;100.00;100636.80;103537;1290;60274;-80
2023/07/19 03:04:53;;;;;;;17.40;7.60;;;;;;;20.64;100.00;100639.09;103378;1286;60320;-80
2023/07/19 03:07:19;;;;;;;14.00;7.60;;;;;;;20.66;100.00;100640.61;103495;1286;60513;-80
2023/07/19 03:09:44;;;;;;;19.10;7.90;;;;;;;20.77;100.00;100637.29;103517;1289;60368;-80
2023/07/19 03:12:10;;;;;;;16.90;8.10;;;;;;;20.82;100.00;100637.98;103434;1292;60379;-81
2023/07/19 03:14:35;;;;;;;14.50;8.00;;;;;;;20.87;100.00;100633.64;103382;1292;60389;-80
2023/07/19 03:17:01;;;;;;;11.10;7.30;;;;;;;20.93;100.00;100634.74;103454;1286;60312;-81
2023/07/19 03:19:26;;;;;;;20.90;8.50;;;;;;;21.05;100.00;100640.33;103154;1295;60491;-81
2023/07/19 03:21:52;;;;;;;16.50;7.70;;;;;;;21.15;100.00;100644.52;103081;1289;60414;-80
2023/07/19 03:24:17;;;;;;;13.30;7.30;;;;;;;21.24;100.00;100641.09;103224;1289;60571;-82
2023/07/19 03:26:43;;;;;;;12.30;7.70;;;;;;;21.40;100.00;100641.92;103146;1295;60801;-81
2023/07/19 03:29:08;;;;;;;12.80;7.40;;;;;;;21.86;100.00;100642.97;103197;1300;60518;-81
2023/07/19 03:31:34;;;;;;;14.80;7.20;;;;;;;22.57;100.00;100636.04;102891;1289;60584;-81
2023/07/19 03:34:00;;;;;;;9.60;6.30;;;;;;;23.31;100.00;100628.46;102620;1298;60516;-82
2023/07/19 03:36:27;;;;;;;14.50;6.30;;;;;;;23.95;100.00;100625.45;102982;1293;60460;-81
2023/07/19 03:38:53;;;;;;;10.80;6.10;;;;;;;24.37;100.00;100628.98;102706;1297;62251;-82
2023/07/19 03:41:18;;;;;;;8.10;5.70;;;;;;;24.89;100.00;100632.56;102475;1301;61459;-82
2023/07/19 03:43:44;;;;;;;15.80;5.90;;;;;;;25.36;100.00;100638.42;102652;1298;60396;-82
2023/07/19 03:46:10;;;;;;;14.00;5.70;;;;;;;25.86;100.00;100636.05;102463;1292;60574;-81
2023/07/19 03:48:37;;;;;;;7.70;5.10;;;;;;;26.19;100.00;100643.21;102639;1298;60498;-82
2023/07/19 03:51:03;;;;;;;17.00;6.10;;;;;;;26.42;100.00;100637.66;103176;1289;74101;-82
2023/07/19 03:53:29;;;;;;;10.30;5.10;;;;;;;26.70;95.72;100640.40;103025;1295;62619;-80
2023/07/19 03:55:56;;;;;;;12.20;5.10;;;;;;;26.86;91.40;100643.59;102603;1290;60401;-81
2023/07/19 03:58:24;;;;;;;10.30;4.60;;;;;;;27.09;86.99;100641.44;102975;1290;60932;-82
2023/07/19 04:00:53;;;;;;;9.40;4.50;;;;;;;27.35;84.51;100636.17;102848;1289;60556;-81
2023/07/19 04:03:20;;;;;;;9.30;4.40;;;;;;;27.64;80.79;100637.29;103220;1293;73409;-81
2023/07/19 04:05:46;;;;;;;6.90;3.60;;;;;;;27.76;76.46;100640.55;102984;1290;60453;-81
2023/07/19 04:08:14;;;;;;;9.80;3.70;;;;;;;27.83;74.77;100640.34;103031;1292;60481;-81
2023/07/19 04:10:39;;;;;;;6.60;3.50;;;;;;;28.26;73.57;100639.34;103134;1287;61848;-80
2023/07/19 04:13:05;;;;;;;7.60;3.60;;;;;;;28.51;69.22;100640.27;103794;1289;60417;-82
2023/07/19 04:15:32;;;;;;;6.60;3.00;;;;;;;28.65;66.57;100640.08;103130;1286;60302;-82
2023/07/19 04:17:58;;;;;;;8.50;3.30;;;;;;;28.72;64.19;100643.23;103273;1293;60412;-80
2023/07/19 04:20:25;;;;;;;6.70;3.30;;;;;;;28.65;62.28;100647.61;103463;1286;60347;-81
2023/07/19 04:22:51;;;;;;;7.50;3.30;;;;;;;28.54;62.00;100646.48;103401;1289;60393;-81
2023/07/19 04:25:18;;;;;;;5.60;2.80;;;;;;;28.48;60.58;100649.82;103296;1288;60401;-81
2023/07/19 04:27:46;;;;;;;9.00;3.30;;;;;;;28.11;60.19;100655.41;103495;1286;60378;-81
2023/07/19 04:30:13;;;;;;;5.70;3.20;;;;;;;28.17;61.07;100659.52;103294;1287;74914;-82
2023/07/19 04:32:38;;;;;;;7.40;3.30;;;;;;;28.40;61.25;100654.15;103448;1289;60667;-83
2023/07/19 04:35:06;;;;;;;6.60;3.10;;;;;;;28.82;61.94;100658.06;103636;1289;60369;-82
2023/07/19 04:37:32;;;;;;;5.10;2.80;;;;;;;29.45;60.56;100660.41;103557;1289;60309;-81
2023/07/19 04:39:58;;;;;;;5.20;3.10;;;;;;;30.08;58.34;100665.35;103548;1286;60168;-82
2023/07/19 04:42:24;;;;;;;11.50;3.10;;;;;;;30.65;56.63;100665.45;103712;1286;60479;-83
2023/07/19 04:44:50;;;;;;;5.50;3.20;;;;;;;31.26;54.74;100670.58;103537;1289;60382;-82
2023/07/19 04:47:15;;;;;;;5.70;2.80;;;;;;;31.68;52.25;100670.59;103065;1292;61391;-82
2023/07/19 04:49:41;;;;;;;7.70;3.20;;;;;;;32.06;50.65;100668.00;106933;1285;58501;-83
2023/07/19 04:52:07;;;;;;;5.30;3.30;;;;;;;32.25;49.08;100668.95;106965;1285;58774;-82
2023/07/19 04:54:32;;;;;;;6.80;3.20;;;;;;;32.44;48.33;100673.72;106890;1285;72581;-83
2023/07/19 04:56:58;;;;;;;4.40;2.80;;;;;;;32.17;48.80;100674.17;106921;1285;59231;-82
2023/07/19 04:59:24;;;;;;;8.20;3.70;;;;;;;32.25;47.49;100673.34;106940;1285;58095;-83
2023/07/19 05:01:49;;;;;;;11.80;3.40;;;;;;;32.29;47.89;100673.39;106564;1287;58344;-83
2023/07/19 05:04:15;;;;;;;6.10;2.80;;;;;;;32.38;46.62;100679.73;106959;1285;58040;-83
2023/07/19 05:06:40;;;;;;;8.70;3.50;;;;;;;31.81;46.36;100680.10;106542;1285;60960;-83
2023/07/19 05:09:08;;;;;;;7.10;3.80;;;;;;;31.54;46.86;100677.55;106881;1286;58065;-82
2023/07/19 05:11:34;;;;;;;5.60;3.20;;;;;;;31.13;46.21;100684.41;106884;1285;73885;-82
2023/07/19 05:14:02;;;;;;;6.30;3.70;;;;;;;30.60;47.98;100694.45;106878;1285;58261;-81
2023/07/19 05:16:28;;;;;;;6.10;3.60;;;;;;;30.60;48.89;100692.61;106852;1285;73473;-83
2023/07/19 05:18:53;;;;;;;5.70;3.60;;;;;;;30.85;49.18;100694.34;106870;1285;58447;-83
2023/07/19 05:21:19;;;;;;;6.10;3.40;;;;;;;31.13;48.28;100693.57;106864;1286;58154;-82
2023/07/19 05:23:45;;;;;;;8.10;3.60;;;;;;;31.06;47.76;100684.35;106933;1285;58011;-82
2023/07/19 05:26:11;;;;;;;5.00;3.20;;;;;;;30.84;47.49;100685.45;106877;1285;58230;-81
2023/07/19 05:28:37;;;;;;;9.40;3.70;;;;;;;30.56;47.70;100686.33;106927;1285;58168;-83
2023/07/19 05:31:04;;;;;;;4.40;3.50;;;;;;;30.20;47.80;100686.30;106594;1285;59912;-82
2023/07/19 05:33:31;;;;;;;4.90;3.30;;;;;;;29.69;48.23;100689.52;106883;1285;73739;-81
2023/07/19 05:35:57;;;;;;;7.90;3.60;;;;;;;29.12;48.76;100688.23;106929;1285;74350;-82
2023/07/19 05:38:23;;;;;;;6.30;3.60;;;;;;;28.79;49.24;100689.43;106871;1285;58203;-82
2023/07/19 05:40:48;;;;;;;7.70;3.80;;;;;;;28.48;50.11;100694.42;106538;1287;58496;-82
2023/07/19 05:43:13;;;;;;;12.20;3.40;;;;;;;28.29;50.35;100696.15;106886;1285;58081;-81
2023/07/19 05:45:39;;;;;;;5.50;3.40;;;;;;;28.07;50.86;100694.23;106948;1285;58210;-83
2023/07/19 05:48:05;;;;;;;5.60;3.50;;;;;;;27.96;51.74;100695.10;106873;1285;73545;-82
2023/07/19 05:50:30;;;;;;;5.60;3.90;;;;;;;28.06;52.08;100697.63;106932;1285;58619;-83
2023/07/19 05:52:56;;;;;;;5.40;3.80;;;;;;;28.00;52.04;100701.27;106904;1285;58190;-82
2023/07/19 05:55:24;;;;;;;7.90;3.80;;;;;;;27.97;52.69;100705.27;106797;1285;58223;-81
2023/07/19 05:57:50;;;;;;;7.00;3.90;;;;;;;27.90;52.89;100704.53;106635;1288;58242;-82
2023/07/19 06:00:32;;;;;;;10.80;3.40;;;;;;;27.79;52.84;100703.65;106712;1288;58293;-81
2023/07/19 06:02:58;;;;;;;8.80;3.80;;;;;;;27.64;51.68;100704.45;106665;1288;60077;-83
2023/07/19 06:05:27;;;;;;;8.20;3.50;;;;;;;27.41;52.03;100706.31;106642;1289;58185;-82
2023/07/19 06:08:11;;;;;;;6.40;3.30;;;;;;;27.35;52.91;100702.52;106622;1287;73745;-82
2023/07/19 06:10:37;;;;;;;5.40;3.60;;;;;;;27.66;53.17;100699.20;106622;1288;74406;-82
2023/07/19 06:13:31;;;;;;;9.40;3.30;;;;;;;27.97;52.78;100703.52;106751;1288;58214;-83
2023/07/19 06:15:57;;;;;;;3.90;3.20;;;;;;;28.20;51.89;100707.70;106627;1288;61323;-82
2023/07/19 06:18:23;;;;;;;4.60;3.00;;;;;;;28.36;51.29;100703.38;106701;1288;58496;-83
2023/07/19 06:20:49;;;;;;;6.90;2.90;;;;;;;28.79;50.83;100697.52;106487;1288;58078;-85
2023/07/19 06:23:14;;;;;;;5.60;2.90;;;;;;;29.25;50.02;100697.38;106379;1289;58374;-83
2023/07/19 06:25:40;;;;;;;6.20;3.00;;;;;;;29.59;49.07;100694.30;106616;1288;58209;-83
2023/07/19 06:28:06;;;;;;;7.30;3.00;;;;;;;30.05;48.98;100691.46;106351;1289;58457;-83
2023/07/19 06:30:32;;;;;;;4.90;2.60;;;;;;;30.59;48.16;100693.16;106659;1287;73288;-83
2023/07/19 06:32:57;;;;;;;5.80;2.50;;;;;;;30.92;47.11;100686.56;106696;1287;58815;-82
2023/07/19 06:35:23;;;;;;;3.50;2.30;;;;;;;31.12;46.71;100688.00;106720;1286;58288;-83
2023/07/19 06:37:49;;;;;;;4.90;2.40;;;;;;;31.35;45.90;100683.05;106751;1285;58288;-84
2023/07/19 06:40:15;;;;;;;4.90;2.60;;;;;;;31.94;45.80;100677.99;106922;1285;58208;-85
2023/07/19 06:42:42;;;;;;;3.30;2.90;;;;;;;33.23;45.54;100675.59;106923;1284;58660;-82
2023/07/19 06:45:08;;;;;;;5.30;2.40;;;;;;;34.65;43.79;100675.11;106561;1286;73518;-80
2023/07/19 06:47:34;;;;;;;5.10;2.50;;;;;;;35.59;40.93;100675.25;106888;1286;58199;-80
2023/07/19 06:49:59;;;;;;;3.80;2.20;;;;;;;36.05;38.88;100668.23;106902;1285;58448;-82
2023/07/19 06:52:25;;;;;;;5.50;1.90;;;;;;;35.75;37.45;100671.06;106949;1285;58352;-83
2023/07/19 06:54:51;;;;;;;13.60;2.00;;;;;;;34.90;37.10;100683.00;106859;1285;58298;-81
2023/07/19 06:57:16;;;;;;;3.20;1.90;;;;;;;34.22;37.54;100683.40;106894;1285;58271;-81
2023/07/19 06:59:44;;;;;;;5.70;2.30;;;;;;;33.90;38.56;100680.85;106955;1285;58646;-83
2023/07/19 07:02:19;;;;;;;4.70;2.30;;;;;;;34.81;39.26;100681.04;106995;1285;74579;-83
2023/07/19 07:04:49;;;;;;;3.70;2.30;;;;;;;36.03;37.60;100677.48;106571;1285;74298;-83
2023/07/19 07:07:19;;;;;;;2.80;2.10;;;;;;;36.52;35.47;100683.98;106808;1285;73161;-82
2023/07/19 07:09:45;;;;;;;3.00;1.80;;;;;;;36.86;34.26;100682.67;106924;1285;60243;-82
2023/07/19 07:12:11;;;;;;;3.80;2.20;;;;;;;36.98;33.00;100681.44;106890;1285;58492;-83
2023/07/19 07:14:43;;;;;;;3.00;1.90;;;;;;;36.66;33.01;100686.39;106902;1285;58297;-82
2023/07/19 07:17:09;;;;;;;;;;;;;;;37.01;32.52;100686.83;106733;1285;73213;-82
2023/07/19 07:19:35;;;;;;;1.80;1.60;;;;;;;37.73;32.30;100685.33;106760;1286;58303;-83
2023/07/19 07:22:00;;;;;;;7.60;2.40;;;;;;;38.29;31.12;100685.33;106612;1288;58685;-84
2023/07/19 07:24:26;;;;;;;3.50;1.90;;;;;;;38.71;30.63;100688.20;106933;1285;58967;-82
2023/07/19 07:26:51;;;;;;;3.30;2.40;;;;;;;39.19;30.08;100687.10;106840;1285;58490;-84
2023/07/19 07:29:17;;;;;;;4.00;2.10;;;;;;;39.53;30.09;100685.34;106960;1285;58272;-85
2023/07/19 07:31:42;;;;;;;3.10;2.20;;;;;;;39.84;29.20;100681.74;106851;1285;60915;-82
2023/07/19 07:34:09;;;;;;;5.30;2.50;;;;;;;40.05;28.54;100676.66;106909;1285;58434;-82
2023/07/19 07:36:37;;;;;;;2.50;2.10;;;;;;;39.94;28.60;100678.71;106935;1285;58280;-83
2023/07/19 07:39:08;;;;;;;5.80;2.20;;;;;;;40.13;28.54;100676.30;106881;1285;73763;-85
2023/07/19 07:41:34;;;;;;;2.40;2.10;;;;;;;40.49;27.50;100673.25;106897;1285;73435;-82
2023/07/19 07:43:59;;;;;;;5.50;2.30;;;;;;;40.48;27.19;100673.49;106571;1285;58367;-81
2023/07/19 07:46:27;;;;;;;2.50;2.20;;;;;;;40.67;27.15;100672.21;106803;1285;58521;-80
2023/07/19 07:48:59;;;;;;;3.10;2.10;;;;;;;40.77;26.41;100670.42;106922;1285;58339;-79
2023/07/19 07:51:29;;;;;;;3.40;2.10;;;;;;;40.45;26.44;100670.63;106905;1285;73516;-81
2023/07/19 07:53:55;;;;;;;3.80;2.10;;;;;;;40.20;26.09;100670.23;106454;1285;72732;-81
2023/07/19 07:56:22;;;;;;;2.40;2.10;;;;;;;39.67;26.45;100674.38;106883;1285;58459;-81
2023/07/19 07:58:48;;;;;;;5.10;2.20;;;;;;;39.29;26.30;100672.27;106889;1285;58219;-80
2023/07/19 08:01:13;;;;;;;2.90;2.30;;;;;;;38.12;26.74;100663.06;106480;1285;58626;-82
2023/07/19 08:03:38;;;;;;;2.50;2.30;;;;;;;38.07;27.34;100658.77;106896;1285;58669;-85
2023/07/19 08:06:04;;;;;;;3.10;2.00;;;;;;;38.69;27.05;100658.72;106924;1286;58264;-81
2023/07/19 08:08:30;;;;;;;4.30;1.80;;;;;;;38.27;26.56;100661.95;106836;1285;58332;-81
2023/07/19 08:10:56;;;;;;;3.50;1.80;;;;;;;38.33;26.61;100660.26;106946;1285;73776;-82
2023/07/19 08:13:21;;;;;;;6.60;1.60;;;;;;;38.61;26.42;100661.41;106959;1285;58457;-79
2023/07/19 08:15:48;;;;;;;2.30;1.70;;;;;;;38.77;26.14;100659.83;106832;1285;58311;-78
2023/07/19 08:18:13;;;;;;;5.40;2.20;;;;;;;39.06;26.19;100662.34;106911;1285;58325;-79
2023/07/19 08:20:40;;;;;;;2.10;1.90;;;;;;;39.49;26.32;100665.36;106914;1285;58306;-79
2023/07/19 08:23:05;;;;;;;2.70;1.60;;;;;;;39.75;25.24;100664.08;106942;1285;58247;-79
2023/07/19 08:25:31;;;;;;;1.70;1.60;;;;;;;39.79;25.47;100663.14;106967;1285;58253;-77
2023/07/19 08:27:56;;;;;;;6.20;2.10;;;;;;;39.99;24.93;100663.67;106940;1285;58198;-78
2023/07/19 08:30:23;;;;;;;3.20;1.70;;;;;;;39.88;24.77;100661.20;106920;1285;58382;-79
2023/07/19 08:32:51;;;;;;;6.10;2.00;;;;;;;39.73;24.84;100659.34;106955;1285;58292;-79
2023/07/19 08:35:17;;;;;;;2.00;1.70;;;;;;;39.80;25.25;100655.91;106698;1285;73368;-79
2023/07/19 08:37:46;;;;;;;4.40;1.90;;;;;;;39.80;25.04;100654.15;106710;1285;58320;-79
2023/07/19 08:40:14;;;;;;;2.80;1.70;;;;;;;39.43;25.39;100654.11;106901;1285;61158;-79
2023/07/19 08:42:41;;;;;;;2.30;1.50;;;;;;;39.42;24.40;100653.38;106925;1285;58849;-79
2023/07/19 08:45:08;;;;;;;2.90;1.50;;;;;;;39.32;24.69;100652.26;106916;1285;74430;-77
2023/07/19 08:47:37;;;;;;;1.80;1.60;;;;;;;39.25;24.37;100647.91;106937;1285;73225;-78
2023/07/19 08:50:07;;;;;;;5.00;1.70;;;;;;;38.75;24.72;100649.24;106908;1286;73488;-79
2023/07/19 08:52:33;;;;;;;3.00;1.80;;;;;;;38.62;24.93;100647.52;106498;1286;59946;-79
2023/07/19 08:55:00;;;;;;;3.80;1.50;;;;;;;38.84;24.76;100645.02;106958;1285;59000;-80
2023/07/19 08:57:29;;;;;;;1.40;1.30;;;;;;;38.98;24.61;100651.66;106952;1285;58518;-79
2023/07/19 08:59:54;;;;;;;6.00;1.60;;;;;;;38.96;24.57;100648.40;106818;1285;74339;-79
2023/07/19 09:02:20;;;;;;;6.00;1.60;;;;;;;38.69;25.03;100652.45;106885;1285;58589;-79
2023/07/19 09:05:09;;;;;;;2.90;1.80;;;;;;;39.02;24.96;100655.08;106918;1285;58346;-78
2023/07/19 09:07:36;;;;;;;2.00;1.50;;;;;;;39.22;24.56;100654.52;106943;1285;60250;-79
2023/07/19 09:10:03;;;;;;;4.20;1.60;;;;;;;39.21;24.55;100658.59;106928;1285;74818;-78
2023/07/19 09:12:42;;;;;;;2.40;1.30;;;;;;;39.18;24.13;100654.66;106653;1285;58299;-78
2023/07/19 09:15:09;;;;;;;1.60;1.50;;;;;;;39.23;24.57;100649.16;106938;1285;73376;-78
2023/07/19 09:17:43;;;;;;;5.10;1.50;;;;;;;39.17;24.38;100641.71;106866;1285;60077;-78
2023/07/19 09:20:13;;;;;;;3.80;1.30;;;;;;;38.73;24.98;100638.14;106961;1285;60908;-78
2023/07/19 09:22:40;;;;;;;1.70;1.40;;;;;;;38.41;25.50;100635.02;106928;1285;74655;-77
2023/07/19 09:25:09;;;;;;;5.90;1.70;;;;;;;38.49;25.93;100631.86;106951;1285;74163;-79
2023/07/19 09:27:35;;;;;;;2.20;1.30;;;;;;;38.60;25.24;100634.95;106904;1285;72421;-78
2023/07/19 09:30:03;;;;;;;3.50;1.30;;;;;;;37.79;25.77;100629.54;106898;1285;58201;-78
2023/07/19 09:32:29;;;;;;;1.90;1.40;;;;;;;37.64;26.04;100626.35;106902;1285;60305;-78
2023/07/19 09:34:57;;;;;;;4.10;1.30;;;;;;;37.75;26.56;100622.98;106922;1285;58175;-78
2023/07/19 09:37:25;;;;;;;2.50;1.30;;;;;;;37.61;26.03;100616.22;106653;1285;73462;-77
2023/07/19 09:39:54;;;;;;;3.10;1.20;;;;;;;37.17;25.86;100614.88;106555;1285;72452;-78
2023/07/19 09:42:20;;;;;;;4.10;1.40;;;;;;;37.11;26.26;100625.70;106726;1285;60227;-77
2023/07/19 09:44:46;;;;;;;2.40;1.20;;;;;;;37.03;25.53;100622.48;106909;1285;58149;-77
2023/07/19 09:47:13;;;;;;;4.40;0.90;;;;;;;37.08;26.06;100620.35;106940;1285;58005;-78
2023/07/19 09:49:39;;;;;;;3.70;1.40;;;;;;;37.04;25.98;100618.90;106912;1285;58275;-78
2023/07/19 09:52:05;;;;;;;5.40;1.30;;;;;;;36.80;25.91;100615.48;106766;1285;59175;-77
2023/07/19 09:54:34;;;;;;;3.70;1.20;;;;;;;36.92;25.87;100617.52;106954;1285;58220;-78
2023/07/19 09:57:02;;;;;;;6.60;1.10;;;;;;;36.97;25.96;100613.77;106716;1286;60607;-78
2023/07/19 09:59:38;;;;;;;5.90;1.40;;;;;;;36.87;26.16;100613.08;106910;1285;74830;-78
2023/07/19 10:02:04;;;;;;;3.10;1.30;;;;;;;36.49;25.88;100614.33;106747;1285;73575;-77
2023/07/19 10:04:37;;;;;;;3.90;0.90;;;;;;;36.33;26.31;100615.09;106936;1285;58259;-77
2023/07/19 10:07:08;;;;;;;2.80;1.00;;;;;;;36.01;26.17;100609.23;106886;1285;60249;-78
2023/07/19 10:09:38;;;;;;;2.40;1.00;;;;;;;35.90;26.34;100601.07;106941;1285;59934;-77
2023/07/19 10:12:16;;;;;;;11.40;1.10;;;;;;;35.54;25.49;100605.48;106884;1285;74505;-79
2023/07/19 10:15:01;;;;;;;2.00;1.10;;;;;;;35.15;25.77;100618.80;106927;1285;73308;-75
2023/07/19 10:17:31;;;;;;;2.00;1.00;;;;;;;34.94;26.25;100611.77;106757;1285;72508;-77
2023/07/19 10:20:07;;;;;;;4.40;1.20;;;;;;;35.00;26.29;100613.28;106797;1285;60587;-77
2023/07/19 10:22:52;;;;;;;3.00;1.00;;;;;;;34.94;26.36;100611.23;106735;1285;59891;-78
2023/07/19 10:25:28;;;;;;;5.20;1.00;;;;;;;34.63;26.99;100615.81;106938;1285;74566;-78
2023/07/19 10:28:08;;;;;;;5.10;1.00;;;;;;;34.41;28.00;100616.23;106930;1285;74271;-77
2023/07/19 10:30:44;;;;;;;2.60;1.10;;;;;;;34.44;28.30;100614.91;106886;1286;72611;-77
2023/07/19 10:33:11;;;;;;;2.30;0.90;;;;;;;34.57;28.70;100616.30;106489;1288;60335;-77
2023/07/19 10:35:36;;;;;;;1.80;0.80;;;;;;;34.68;28.41;100612.95;106334;1290;60906;-78
2023/07/19 10:38:05;;;;;;;3.30;0.90;;;;;;;34.54;27.48;100613.32;106600;1288;58659;-77
2023/07/19 10:40:34;;;;;;;2.90;1.00;;;;;;;34.40;28.37;100618.08;106561;1288;72420;-77
2023/07/19 10:43:02;;;;;;;2.30;1.20;;;;;;;34.53;28.19;100616.61;106227;1292;72567;-77
2023/07/19 10:45:35;;;;;;;2.10;1.00;;;;;;;34.59;28.32;100607.73;106550;1288;60892;-79
2023/07/19 10:48:04;;;;;;;2.20;1.10;;;;;;;34.50;28.51;100612.41;106423;1289;60018;-77
2023/07/19 10:50:29;;;;;;;2.40;1.00;;;;;;;34.41;28.72;100606.08;106569;1288;73733;-78
2023/07/19 10:52:55;;;;;;;5.00;1.10;;;;;;;34.55;29.18;100598.41;106552;1288;58342;-78
2023/07/19 10:55:30;;;;;;;2.10;0.80;;;;;;;34.82;28.99;100597.25;106550;1288;58281;-78
2023/07/19 10:57:55;;;;;;;2.20;1.00;;;;;;;34.98;28.98;100598.73;106353;1289;60472;-79
2023/07/19 11:00:21;;;;;;;3.80;1.20;;;;;;;34.93;28.31;100589.86;106542;1288;58289;-78
2023/07/19 11:02:47;;;;;;;2.20;1.20;;;;;;;34.83;29.19;100589.98;106528;1288;58260;-77
2023/07/19 11:05:13;;;;;;;6.60;1.10;;;;;;;34.99;28.89;100589.67;106852;1285;58187;-78
2023/07/19 11:07:38;;;;;;;2.40;1.00;;;;;;;34.87;28.64;100581.81;106891;1285;58320;-78
2023/07/19 11:10:06;;;;;;;3.70;1.20;;;;;;;34.86;28.83;100577.83;106957;1285;58253;-78
2023/07/19 11:12:31;;;;;;;1.60;0.90;;;;;;;34.70;29.31;100576.67;106222;1288;73606;-78